首页
METAR-TAF:

METAR-TAF

机场 :

伯恩茅斯, 英格兰

纬度: 50-47N, 经度: 001-50W, 海拔: 11米

当前天气观测

该预报发布于16分钟前的10:20 UTC
风速6节,风向北转东北
温度 19°C
湿度 88%
气压 1013 hPa
能見度: 9000
多云层高于800英尺

METAR: EGHH 141020Z 02006KT 9000 BKN008 19/17 Q1013

时间: 11:36 (10:36 UTC)

预报

该预报发布于2小时和35分钟前的08:01 UTC
预报有效从14日的 09点(UTC)到 14日的 18点(UTC)
风速5节,风向北转东北
能見度: 6000
多云层高于400英尺
成为
从 14日的 09点(UTC)到 14日的 11点(UTC)
能见度10公里或以上
多云层高于1000英尺
几率 30% :
短暂存在
从 14日的 09点(UTC)到 14日的 18点(UTC)
风速15节,风向多变,有时为25节阵风
能見度: 3000
雷暴, 大雨
成为
从 14日的 11点(UTC)到 14日的 14点(UTC)
多云层高于1500英尺

TAF: EGHH 140801Z 1409/1418 03005KT 6000 BKN004 BECMG 1409/1411 9999 NSW BKN010 PROB30 TEMPO 1409/1418 VRB15G25KT 3000 +TSRA BECMG 1411/1414 BKN015

超过4000个机场的气象观测和天气预报(METAR&TAF报告)。

可查询的气象台以黄色和红色小点在地图上表示。

将鼠标移到小点上方,可查看气象台名称。

然后点击查看天气观测和预报。

如需切换地图:点击带黑十字的绿色按钮放大地图;点击带横线的绿色按钮缩小地图;或者点击绿色箭头查看邻近地区的地图。


METAR-TAF: